createdAt,value
2022-10-17T00:00:59.963Z,53.94
2022-10-17T00:03:27.279Z,54.41
2022-10-17T00:05:54.617Z,54.00
2022-10-17T00:08:21.937Z,53.99
2022-10-17T00:11:02.879Z,54.16
2022-10-17T00:13:30.621Z,54.25
2022-10-17T00:15:58.288Z,54.09
2022-10-17T00:18:26.579Z,54.32
2022-10-17T00:20:54.172Z,54.46
2022-10-17T00:23:21.361Z,54.21
2022-10-17T00:25:57.356Z,54.40
2022-10-17T00:28:24.512Z,54.80
2022-10-17T00:31:05.611Z,54.26
2022-10-17T00:33:35.194Z,54.15
2022-10-17T00:36:19.207Z,53.98
2022-10-17T00:38:50.487Z,54.13
2022-10-17T00:41:22.036Z,54.25
2022-10-17T00:44:27.033Z,54.15
2022-10-17T00:46:55.900Z,54.44
2022-10-17T00:49:27.619Z,54.44
2022-10-17T00:52:02.073Z,54.30
2022-10-17T00:54:38.372Z,54.36
2022-10-17T00:57:06.654Z,54.71
2022-10-17T00:59:37.822Z,54.65
2022-10-17T01:02:10.875Z,54.77
2022-10-17T01:04:45.070Z,54.85
2022-10-17T01:07:12.739Z,54.84
2022-10-17T01:09:41.775Z,54.88
2022-10-17T01:12:41.241Z,55.10
2022-10-17T01:15:44.144Z,55.09
2022-10-17T01:18:43.339Z,54.96
2022-10-17T01:22:00.272Z,55.11
2022-10-17T01:24:42.279Z,55.24
2022-10-17T01:27:34.148Z,55.31
2022-10-17T01:30:19.352Z,55.26
2022-10-17T01:33:01.266Z,55.18
2022-10-17T01:35:38.918Z,54.93
2022-10-17T01:38:25.442Z,55.12
2022-10-17T01:41:14.007Z,55.07
2022-10-17T01:43:51.502Z,55.03
2022-10-17T01:46:36.068Z,54.95
2022-10-17T01:49:08.423Z,54.94
2022-10-17T01:52:04.863Z,55.23
2022-10-17T01:54:42.517Z,55.34
2022-10-17T01:57:20.602Z,55.22
2022-10-17T01:59:52.653Z,55.17
2022-10-17T02:02:21.944Z,55.31
2022-10-17T02:04:52.613Z,55.36
2022-10-17T02:07:19.845Z,55.40
2022-10-17T02:09:47.062Z,55.55
2022-10-17T02:13:09.421Z,55.46
2022-10-17T02:16:13.167Z,55.57
2022-10-17T02:19:20.616Z,55.80
2022-10-17T02:22:08.813Z,56.01
2022-10-17T02:25:21.551Z,55.57
2022-10-17T02:28:00.757Z,55.91
2022-10-17T02:30:54.003Z,55.80
2022-10-17T02:33:53.842Z,55.94
2022-10-17T02:36:29.201Z,55.74
2022-10-17T02:38:59.034Z,55.57
2022-10-17T02:43:57.639Z,55.84
2022-10-17T02:46:29.355Z,55.86
2022-10-17T02:49:30.890Z,55.67
2022-10-17T02:52:34.599Z,55.62
2022-10-17T02:55:26.898Z,55.64
2022-10-17T02:58:06.746Z,55.61
2022-10-17T03:00:35.251Z,55.68
2022-10-17T03:03:19.338Z,55.79
2022-10-17T03:05:46.614Z,55.89
2022-10-17T03:08:13.883Z,55.81
2022-10-17T03:10:41.140Z,55.77
2022-10-17T03:13:08.417Z,55.92
2022-10-17T03:15:35.725Z,55.70
2022-10-17T03:18:03.524Z,55.80
2022-10-17T03:20:30.829Z,55.75
2022-10-17T03:22:58.054Z,55.96
2022-10-17T03:25:25.362Z,56.03
2022-10-17T03:27:53.148Z,55.83
2022-10-17T03:30:20.986Z,55.82
2022-10-17T03:32:48.329Z,55.93
2022-10-17T03:35:15.737Z,55.84
2022-10-17T03:37:42.982Z,55.77
2022-10-17T03:40:11.327Z,55.51
2022-10-17T03:42:38.889Z,55.92
2022-10-17T03:45:07.160Z,56.04
2022-10-17T03:47:34.757Z,55.93
2022-10-17T03:50:02.329Z,55.74
2022-10-17T03:52:29.988Z,55.94
2022-10-17T03:54:57.732Z,55.95
2022-10-17T03:57:25.414Z,56.29
2022-10-17T03:59:53.024Z,56.26
2022-10-17T04:02:20.626Z,56.45
2022-10-17T04:04:48.239Z,56.49
2022-10-17T04:07:15.840Z,56.45
2022-10-17T04:09:43.637Z,56.15
2022-10-17T04:12:11.212Z,56.05
2022-10-17T04:14:38.938Z,56.30
2022-10-17T04:17:06.176Z,56.20
2022-10-17T04:19:33.415Z,56.17
2022-10-17T04:22:00.599Z,56.21
2022-10-17T04:24:28.243Z,56.15
2022-10-17T04:26:55.540Z,56.11
2022-10-17T04:29:22.797Z,56.62
2022-10-17T04:31:50.043Z,56.54
2022-10-17T04:34:17.743Z,56.46
2022-10-17T04:36:44.895Z,56.66
2022-10-17T04:41:44.081Z,56.57
2022-10-17T04:44:12.186Z,56.43
2022-10-17T04:46:39.772Z,56.08
2022-10-17T04:49:07.236Z,56.31
2022-10-17T04:51:34.597Z,56.49
2022-10-17T04:54:01.884Z,56.80
2022-10-17T04:56:29.046Z,56.87
2022-10-17T04:58:56.373Z,56.41
2022-10-17T05:01:25.700Z,56.54
2022-10-17T05:03:54.249Z,56.24
2022-10-17T05:06:25.405Z,56.02
2022-10-17T05:08:52.548Z,56.18
2022-10-17T05:11:29.021Z,56.29
2022-10-17T05:14:01.995Z,56.09
2022-10-17T05:16:30.633Z,56.41
2022-10-17T05:18:59.290Z,56.49
2022-10-17T05:21:29.006Z,56.42
2022-10-17T05:23:56.782Z,56.50
2022-10-17T05:26:25.651Z,56.57
2022-10-17T05:28:53.404Z,56.74
2022-10-17T05:31:20.981Z,56.95
2022-10-17T05:33:48.282Z,57.06
2022-10-17T05:36:15.666Z,57.18
2022-10-17T05:38:42.853Z,57.04
2022-10-17T05:41:10.995Z,57.22
2022-10-17T05:43:38.388Z,57.25
2022-10-17T05:46:07.564Z,57.33
2022-10-17T05:48:35.388Z,57.26
2022-10-17T05:51:09.304Z,57.27
2022-10-17T05:53:42.344Z,57.46
2022-10-17T05:56:12.480Z,57.46
2022-10-17T05:58:54.114Z,57.49
2022-10-17T06:01:25.289Z,57.55
2022-10-17T06:03:52.567Z,57.70
2022-10-17T06:06:20.069Z,57.73
2022-10-17T06:08:47.458Z,57.78
2022-10-17T06:11:15.239Z,57.70
2022-10-17T06:13:42.745Z,57.57
2022-10-17T06:16:10.113Z,57.66
2022-10-17T06:18:37.268Z,57.69
2022-10-17T06:21:10.044Z,57.83
2022-10-17T06:23:38.076Z,57.90
2022-10-17T06:26:07.275Z,57.95
2022-10-17T06:28:36.145Z,57.89
2022-10-17T06:31:09.789Z,58.10
2022-10-17T06:33:37.824Z,57.99
2022-10-17T06:36:07.953Z,57.99
2022-10-17T06:38:35.946Z,58.10
2022-10-17T06:41:10.246Z,58.31
2022-10-17T06:43:38.269Z,58.55
2022-10-17T06:46:06.542Z,58.63
2022-10-17T06:48:34.075Z,58.59
2022-10-17T06:51:03.430Z,58.71
2022-10-17T06:53:34.680Z,58.73
2022-10-17T06:56:02.893Z,58.77
2022-10-17T06:58:36.317Z,58.85
2022-10-17T07:03:37.031Z,58.88
2022-10-17T07:06:05.306Z,58.84
2022-10-17T07:08:33.048Z,59.00
2022-10-17T07:11:09.321Z,58.84
2022-10-17T07:13:39.174Z,58.90
2022-10-17T07:16:08.098Z,58.93
2022-10-17T07:18:35.380Z,59.12
2022-10-17T07:21:03.254Z,59.32
2022-10-17T07:23:31.156Z,59.44
2022-10-17T07:26:04.697Z,59.80
2022-10-17T07:28:32.202Z,60.19
2022-10-17T07:31:15.807Z,59.98
2022-10-17T07:33:44.146Z,59.93
2022-10-17T07:36:15.280Z,59.65
2022-10-17T07:38:48.200Z,59.56
2022-10-17T07:41:19.258Z,59.68
2022-10-17T07:43:49.197Z,60.11
2022-10-17T07:46:16.399Z,60.13
2022-10-17T07:48:43.583Z,59.80
2022-10-17T07:51:10.981Z,59.67
2022-10-17T07:53:42.695Z,59.58
2022-10-17T07:56:12.549Z,59.42
2022-10-17T07:58:40.258Z,58.95
2022-10-17T08:01:13.803Z,58.65
2022-10-17T08:03:44.407Z,58.88
2022-10-17T08:06:13.093Z,58.88
2022-10-17T08:08:41.478Z,58.73
2022-10-17T08:11:12.729Z,58.72
2022-10-17T08:13:41.732Z,58.47
2022-10-17T08:16:12.565Z,58.21
2022-10-17T08:18:41.918Z,57.94
2022-10-17T08:21:10.154Z,57.68
2022-10-17T08:23:39.667Z,57.66
2022-10-17T08:26:09.259Z,57.42
2022-10-17T08:28:38.823Z,57.28
2022-10-17T08:31:13.171Z,56.91
2022-10-17T08:33:42.861Z,56.61
2022-10-17T08:36:13.500Z,56.61
2022-10-17T08:38:43.483Z,56.86
2022-10-17T08:41:42.691Z,56.83
2022-10-17T08:44:41.058Z,56.86
2022-10-17T08:47:26.195Z,56.37
2022-10-17T08:50:06.897Z,56.39
2022-10-17T08:53:30.571Z,56.03
2022-10-17T08:56:19.539Z,55.83
2022-10-17T08:58:47.607Z,55.68
2022-10-17T09:01:34.872Z,55.55
2022-10-17T09:04:38.846Z,54.85
2022-10-17T09:07:40.128Z,54.84
2022-10-17T09:10:43.340Z,55.12
2022-10-17T09:13:34.788Z,55.16
2022-10-17T09:16:38.592Z,54.67
2022-10-17T09:19:26.088Z,54.41
2022-10-17T09:22:09.046Z,54.84
2022-10-17T09:24:48.471Z,54.92
2022-10-17T09:27:24.754Z,54.39
2022-10-17T09:30:26.879Z,54.43
2022-10-17T09:33:34.373Z,54.02
2022-10-17T09:36:14.713Z,53.74
2022-10-17T09:38:48.024Z,53.37
2022-10-17T09:41:44.991Z,53.28
2022-10-17T09:44:32.383Z,53.95
2022-10-17T09:47:19.005Z,54.03
2022-10-17T09:49:49.153Z,53.63
2022-10-17T09:52:40.943Z,53.39
2022-10-17T09:55:47.335Z,53.05
2022-10-17T09:58:15.130Z,52.49
2022-10-17T10:00:46.647Z,52.82
2022-10-17T10:03:23.307Z,52.27
2022-10-17T10:06:19.395Z,51.47
2022-10-17T10:08:58.564Z,50.24
2022-10-17T10:11:59.288Z,49.52
2022-10-17T10:14:36.364Z,49.09
2022-10-17T10:17:24.744Z,48.97
2022-10-17T10:19:53.158Z,48.81
2022-10-17T10:22:22.808Z,48.33
2022-10-17T10:25:17.911Z,48.32
2022-10-17T10:27:47.869Z,49.20
2022-10-17T10:30:34.809Z,48.46
2022-10-17T10:33:04.922Z,48.21
2022-10-17T10:35:36.985Z,50.69
2022-10-17T10:38:16.319Z,51.59
2022-10-17T10:40:54.487Z,49.60
2022-10-17T10:43:52.247Z,50.25
2022-10-17T10:46:28.205Z,48.07
2022-10-17T10:49:02.001Z,48.10
2022-10-17T10:51:48.924Z,48.66
2022-10-17T10:54:42.411Z,49.79
2022-10-17T10:57:22.376Z,48.56
2022-10-17T11:00:05.944Z,47.19
2022-10-17T11:03:01.744Z,46.30
2022-10-17T11:05:44.958Z,43.54
2022-10-17T11:08:24.136Z,40.94
2022-10-17T11:11:14.790Z,37.88
2022-10-17T11:14:02.819Z,34.36
2022-10-17T11:16:35.432Z,33.46
2022-10-17T11:19:26.716Z,31.18
2022-10-17T11:22:31.517Z,29.35
2022-10-17T11:25:36.155Z,29.04
2022-10-17T11:28:13.168Z,27.49
2022-10-17T11:31:10.063Z,27.91
2022-10-17T11:33:48.972Z,26.59
2022-10-17T11:36:22.044Z,26.55
2022-10-17T11:39:06.651Z,25.86
2022-10-17T11:41:46.496Z,24.76
2022-10-17T11:44:45.916Z,25.10
2022-10-17T11:47:37.086Z,24.88
2022-10-17T11:53:31.647Z,24.01
2022-10-17T11:56:02.067Z,24.32
2022-10-17T11:58:37.936Z,23.25
2022-10-17T12:01:26.882Z,22.98
2022-10-17T12:04:16.511Z,23.35
2022-10-17T12:07:13.091Z,23.34
2022-10-17T12:10:05.274Z,23.38
2022-10-17T12:12:35.846Z,24.26
2022-10-17T12:15:12.065Z,24.84
2022-10-17T12:17:54.604Z,24.73
2022-10-17T12:20:21.750Z,24.09
2022-10-17T12:22:59.509Z,25.19
2022-10-17T12:25:31.621Z,25.71
2022-10-17T12:28:13.075Z,24.93
2022-10-17T12:31:10.344Z,24.90
2022-10-17T12:33:46.111Z,24.13
2022-10-17T12:36:19.266Z,25.55
2022-10-17T12:39:11.683Z,25.25
2022-10-17T12:41:38.891Z,25.67
2022-10-17T12:44:15.539Z,24.97
2022-10-17T12:47:08.083Z,26.04
2022-10-17T12:49:54.406Z,24.82
2022-10-17T12:52:32.382Z,26.56
2022-10-17T12:55:12.079Z,26.21
2022-10-17T12:58:01.424Z,26.89
2022-10-17T13:01:23.547Z,26.87
2022-10-17T13:03:49.024Z,26.94
2022-10-17T13:06:40.517Z,27.38
2022-10-17T13:09:32.624Z,27.64
2022-10-17T13:12:05.597Z,27.81
2022-10-17T13:14:34.277Z,27.83
2022-10-17T13:17:19.778Z,27.88
2022-10-17T13:19:47.100Z,28.74
2022-10-17T13:22:23.761Z,27.43
2022-10-17T13:25:05.170Z,28.12
2022-10-17T13:27:36.299Z,28.20
2022-10-17T13:30:34.970Z,28.10
2022-10-17T13:33:03.637Z,29.57
2022-10-17T13:35:58.823Z,29.60
2022-10-17T13:38:30.705Z,28.30
2022-10-17T13:41:10.866Z,28.95
2022-10-17T13:43:46.605Z,29.38
2022-10-17T13:46:37.887Z,29.42
2022-10-17T13:49:41.158Z,29.25
2022-10-17T13:52:21.652Z,28.67
2022-10-17T13:54:51.625Z,29.14
2022-10-17T13:57:28.744Z,29.13
2022-10-17T14:00:09.934Z,29.31
2022-10-17T14:02:41.449Z,29.16
2022-10-17T14:05:17.647Z,29.84
2022-10-17T14:08:11.416Z,29.54
2022-10-17T14:10:42.456Z,29.37
2022-10-17T14:13:30.843Z,29.18
2022-10-17T14:16:02.997Z,29.36
2022-10-17T14:18:37.397Z,30.33
2022-10-17T14:24:14.165Z,30.72
2022-10-17T14:26:54.709Z,31.00
2022-10-17T14:29:51.227Z,31.46
2022-10-17T14:32:20.259Z,32.20
2022-10-17T14:34:52.296Z,32.49
2022-10-17T14:37:48.340Z,33.37
2022-10-17T14:40:27.641Z,34.17
2022-10-17T14:43:05.348Z,35.09
2022-10-17T14:45:36.965Z,35.62
2022-10-17T14:48:15.337Z,36.34
2022-10-17T14:51:03.217Z,36.91
2022-10-17T14:53:30.302Z,37.20
2022-10-17T14:56:01.611Z,38.03
2022-10-17T14:58:34.160Z,38.29
2022-10-17T15:01:02.332Z,38.48
2022-10-17T15:03:29.983Z,38.59
2022-10-17T15:05:57.286Z,39.65
2022-10-17T15:08:24.947Z,39.65
2022-10-17T15:10:52.516Z,39.82
2022-10-17T15:13:28.480Z,40.01
2022-10-17T15:15:57.479Z,40.74
2022-10-17T15:18:25.011Z,41.46
2022-10-17T15:21:04.498Z,41.57
2022-10-17T15:23:34.409Z,41.81
2022-10-17T15:26:16.084Z,42.16
2022-10-17T15:28:47.139Z,42.44
2022-10-17T15:31:21.160Z,42.30
2022-10-17T15:33:49.543Z,42.55
2022-10-17T15:36:20.046Z,42.36
2022-10-17T15:38:48.247Z,42.56
2022-10-17T15:41:15.845Z,42.41
2022-10-17T15:43:43.097Z,42.38
2022-10-17T15:46:19.002Z,42.49
2022-10-17T15:48:46.706Z,42.21
2022-10-17T15:51:14.851Z,42.57
2022-10-17T15:53:42.863Z,42.37
2022-10-17T15:56:20.910Z,42.49
2022-10-17T15:58:49.701Z,42.78
2022-10-17T16:01:23.659Z,42.72
2022-10-17T16:03:51.534Z,42.84
2022-10-17T16:06:20.701Z,42.60
2022-10-17T16:08:49.765Z,42.71
2022-10-17T16:11:32.271Z,42.67
2022-10-17T16:14:03.128Z,42.91
2022-10-17T16:16:32.737Z,42.99
2022-10-17T16:19:02.372Z,43.98
2022-10-17T16:21:35.348Z,44.65
2022-10-17T16:24:03.781Z,45.39
2022-10-17T16:26:31.594Z,45.71
2022-10-17T16:28:58.813Z,45.98
2022-10-17T16:31:34.282Z,46.08
2022-10-17T16:34:04.704Z,46.11
2022-10-17T16:36:32.047Z,46.23
2022-10-17T16:38:59.324Z,46.49
2022-10-17T16:41:34.577Z,46.21
2022-10-17T16:44:06.389Z,46.27
2022-10-17T16:46:37.386Z,45.98
2022-10-17T16:49:07.969Z,46.79
2022-10-17T16:51:35.641Z,47.32
2022-10-17T16:54:04.546Z,47.52
2022-10-17T16:56:32.052Z,47.71
2022-10-17T16:59:01.041Z,47.95
2022-10-17T17:01:29.184Z,48.19
2022-10-17T17:03:57.211Z,48.35
2022-10-17T17:06:29.477Z,48.10
2022-10-17T17:08:59.091Z,48.15
2022-10-17T17:11:28.657Z,48.58
2022-10-17T17:14:00.147Z,48.43
2022-10-17T17:16:29.032Z,48.56
2022-10-17T17:19:09.988Z,48.68
2022-10-17T17:21:37.689Z,48.71
2022-10-17T17:24:06.362Z,48.80
2022-10-17T17:26:36.030Z,49.03
2022-10-17T17:29:04.634Z,49.03
2022-10-17T17:31:35.483Z,48.80
2022-10-17T17:34:06.218Z,48.99
2022-10-17T17:36:37.542Z,48.98
2022-10-17T17:39:12.910Z,49.17
2022-10-17T17:41:42.135Z,49.32
2022-10-17T17:44:15.745Z,49.19
2022-10-17T17:46:45.529Z,49.27
2022-10-17T17:49:15.544Z,49.32
2022-10-17T17:51:43.332Z,49.30
2022-10-17T17:54:10.627Z,49.50
2022-10-17T17:56:38.017Z,49.47
2022-10-17T17:59:05.313Z,49.43
2022-10-17T18:01:35.898Z,49.47
2022-10-17T18:04:06.245Z,49.49
2022-10-17T18:06:33.478Z,49.57
2022-10-17T18:09:00.988Z,49.42
2022-10-17T18:11:29.326Z,49.73
2022-10-17T18:14:02.633Z,49.43
2022-10-17T18:16:32.269Z,49.34
2022-10-17T18:19:05.904Z,49.52
2022-10-17T18:21:35.629Z,49.43
2022-10-17T18:24:03.769Z,49.37
2022-10-17T18:26:31.006Z,49.41
2022-10-17T18:28:58.402Z,49.34
2022-10-17T18:31:26.762Z,49.25
2022-10-17T18:33:56.411Z,49.10
2022-10-17T18:36:24.520Z,49.04
2022-10-17T18:38:52.248Z,48.99
2022-10-17T18:41:22.816Z,48.95
2022-10-17T18:43:52.401Z,49.19
2022-10-17T18:46:22.739Z,48.97
2022-10-17T18:48:51.013Z,49.36
2022-10-17T18:51:25.878Z,49.32
2022-10-17T18:53:56.463Z,49.34
2022-10-17T18:56:24.797Z,49.20
2022-10-17T18:58:52.480Z,49.07
2022-10-17T19:01:23.555Z,49.28
2022-10-17T19:03:53.931Z,49.12
2022-10-17T19:06:24.880Z,49.21
2022-10-17T19:08:52.376Z,49.27
2022-10-17T19:11:24.191Z,49.47
2022-10-17T19:13:53.287Z,49.54
2022-10-17T19:16:25.425Z,49.79
2022-10-17T19:19:10.878Z,49.79
2022-10-17T19:21:38.591Z,49.79
2022-10-17T19:24:11.998Z,49.70
2022-10-17T19:26:39.999Z,50.00
2022-10-17T19:29:07.780Z,50.19
2022-10-17T19:31:36.002Z,50.19
2022-10-17T19:34:03.929Z,50.12
2022-10-17T19:36:34.397Z,49.93
2022-10-17T19:39:06.516Z,50.21
2022-10-17T19:41:34.491Z,50.18
2022-10-17T19:44:01.914Z,50.39
2022-10-17T19:46:31.574Z,50.26
2022-10-17T19:48:58.893Z,50.42
2022-10-17T19:51:27.639Z,50.56
2022-10-17T19:53:57.269Z,50.32
2022-10-17T19:56:25.250Z,50.38
2022-10-17T19:58:53.475Z,50.68
2022-10-17T20:01:37.815Z,50.66
2022-10-17T20:04:06.542Z,50.68
2022-10-17T20:06:34.466Z,50.61
2022-10-17T20:09:01.913Z,50.49
2022-10-17T20:11:29.764Z,50.47
2022-10-17T20:13:59.275Z,50.17
2022-10-17T20:16:33.337Z,50.16
2022-10-17T20:19:11.366Z,50.37
2022-10-17T20:21:39.649Z,50.49
2022-10-17T20:24:12.078Z,50.04
2022-10-17T20:26:39.978Z,50.27
2022-10-17T20:29:12.956Z,50.10
2022-10-17T20:31:43.594Z,50.38
2022-10-17T20:34:15.385Z,50.34
2022-10-17T20:36:43.190Z,50.37
2022-10-17T20:39:13.280Z,50.43
2022-10-17T20:41:40.958Z,50.65
2022-10-17T20:44:12.896Z,50.40
2022-10-17T20:46:48.475Z,50.65
2022-10-17T20:49:25.448Z,50.71
2022-10-17T20:51:52.612Z,50.82
2022-10-17T20:54:19.839Z,50.94
2022-10-17T20:56:47.069Z,51.33
2022-10-17T20:59:17.770Z,51.65
2022-10-17T21:01:45.989Z,51.64
2022-10-17T21:07:01.826Z,51.56
2022-10-17T21:09:29.402Z,51.65
2022-10-17T21:11:57.083Z,51.62
2022-10-17T21:14:25.335Z,51.44
2022-10-17T21:17:11.804Z,51.92
2022-10-17T21:19:39.340Z,51.89
2022-10-17T21:22:06.527Z,51.89
2022-10-17T21:24:33.820Z,51.93
2022-10-17T21:27:01.061Z,51.52
2022-10-17T21:29:28.312Z,51.80
2022-10-17T21:31:55.520Z,51.81
2022-10-17T21:34:24.290Z,51.73
2022-10-17T21:36:52.588Z,51.76
2022-10-17T21:39:19.953Z,51.87
2022-10-17T21:41:47.818Z,51.94
2022-10-17T21:44:18.739Z,51.83
2022-10-17T21:46:46.887Z,51.76
2022-10-17T21:49:17.948Z,51.99
2022-10-17T21:51:45.865Z,51.93
2022-10-17T21:54:21.485Z,51.81
2022-10-17T21:56:49.448Z,51.82
2022-10-17T21:59:17.362Z,51.89
2022-10-17T22:01:46.226Z,51.96
2022-10-17T22:04:18.939Z,52.04
2022-10-17T22:06:48.305Z,51.98
2022-10-17T22:09:21.241Z,51.97
2022-10-17T22:11:52.605Z,51.99
2022-10-17T22:14:21.902Z,52.47
2022-10-17T22:16:50.341Z,52.47
2022-10-17T22:19:21.668Z,52.37
2022-10-17T22:21:49.542Z,52.51
2022-10-17T22:26:47.139Z,52.67
2022-10-17T22:29:14.757Z,52.71
2022-10-17T22:31:42.713Z,52.80
2022-10-17T22:34:14.558Z,52.72
2022-10-17T22:36:42.572Z,52.95
2022-10-17T22:39:11.248Z,52.94
2022-10-17T22:41:38.478Z,53.06
2022-10-17T22:44:06.398Z,53.05
2022-10-17T22:46:34.168Z,52.92
2022-10-17T22:49:01.366Z,52.86
2022-10-17T22:51:28.575Z,52.72
2022-10-17T22:53:55.972Z,52.59
2022-10-17T22:56:23.686Z,52.64
2022-10-17T22:58:51.331Z,52.77
2022-10-17T23:01:22.849Z,52.80
2022-10-17T23:03:52.023Z,52.91
2022-10-17T23:06:20.097Z,53.10
2022-10-17T23:08:48.019Z,53.08
2022-10-17T23:11:16.331Z,53.02
2022-10-17T23:13:43.497Z,53.13
2022-10-17T23:16:10.680Z,52.90
2022-10-17T23:18:39.335Z,52.95
2022-10-17T23:21:07.492Z,53.38
2022-10-17T23:23:34.990Z,53.22
2022-10-17T23:26:13.563Z,52.92
2022-10-17T23:28:42.250Z,53.04
2022-10-17T23:31:19.429Z,53.03
2022-10-17T23:33:49.721Z,53.10
2022-10-17T23:36:20.305Z,53.18
2022-10-17T23:38:49.031Z,53.17
2022-10-17T23:41:17.098Z,53.72
2022-10-17T23:43:44.745Z,53.48
2022-10-17T23:46:12.112Z,53.22
2022-10-17T23:48:40.393Z,53.31
2022-10-17T23:51:09.426Z,53.38
2022-10-17T23:53:38.297Z,53.61
2022-10-17T23:56:06.731Z,53.44
2022-10-17T23:58:34.786Z,53.39
